createdAt,value
2022-09-12T00:01:54.266Z,13.80
2022-09-12T00:04:21.591Z,13.70
2022-09-12T00:06:48.908Z,13.70
2022-09-12T00:09:16.254Z,13.70
2022-09-12T00:11:45.652Z,13.70
2022-09-12T00:14:17.040Z,13.70
2022-09-12T00:16:44.795Z,13.70
2022-09-12T00:19:12.509Z,13.60
2022-09-12T00:21:40.064Z,13.60
2022-09-12T00:24:07.767Z,13.60
2022-09-12T00:26:35.117Z,13.60
2022-09-12T00:29:02.460Z,13.60
2022-09-12T00:31:29.814Z,13.60
2022-09-12T00:33:58.619Z,13.60
2022-09-12T00:36:26.133Z,13.50
2022-09-12T00:38:54.565Z,13.60
2022-09-12T00:41:28.835Z,13.50
2022-09-12T00:44:04.443Z,13.50
2022-09-12T00:46:52.502Z,13.50
2022-09-12T00:49:34.888Z,13.50
2022-09-12T00:52:09.128Z,13.50
2022-09-12T00:54:51.051Z,13.50
2022-09-12T00:57:18.469Z,13.50
2022-09-12T00:59:51.087Z,13.40
2022-09-12T01:02:18.523Z,13.40
2022-09-12T01:04:47.821Z,13.40
2022-09-12T01:07:15.443Z,13.40
2022-09-12T01:09:44.066Z,13.40
2022-09-12T01:12:12.757Z,13.40
2022-09-12T01:14:40.064Z,13.40
2022-09-12T01:17:07.609Z,13.40
2022-09-12T01:19:50.723Z,13.30
2022-09-12T01:22:36.204Z,13.30
2022-09-12T01:25:32.086Z,13.30
2022-09-12T01:28:18.197Z,13.30
2022-09-12T01:31:15.711Z,13.20
2022-09-12T01:34:04.596Z,13.20
2022-09-12T01:36:38.140Z,13.30
2022-09-12T01:39:09.559Z,13.30
2022-09-12T01:41:58.490Z,13.30
2022-09-12T01:44:31.343Z,13.30
2022-09-12T01:47:16.983Z,13.30
2022-09-12T01:49:56.393Z,13.30
2022-09-12T01:52:28.336Z,13.30
2022-09-12T01:55:30.002Z,13.30
2022-09-12T01:58:17.881Z,13.30
2022-09-12T02:00:53.722Z,13.30
2022-09-12T02:03:26.809Z,13.20
2022-09-12T02:05:58.036Z,13.10
2022-09-12T02:08:47.252Z,13.10
2022-09-12T02:11:14.741Z,13.10
2022-09-12T02:13:44.348Z,13.10
2022-09-12T02:16:21.484Z,13.10
2022-09-12T02:18:53.050Z,13.00
2022-09-12T02:21:20.525Z,13.00
2022-09-12T02:23:50.242Z,13.00
2022-09-12T02:26:24.031Z,13.00
2022-09-12T02:28:53.011Z,13.00
2022-09-12T02:31:42.371Z,13.00
2022-09-12T02:34:22.666Z,13.00
2022-09-12T02:36:56.300Z,13.10
2022-09-12T02:39:24.251Z,13.00
2022-09-12T02:41:51.841Z,13.00
2022-09-12T02:44:19.341Z,13.00
2022-09-12T02:46:54.235Z,13.00
2022-09-12T02:49:21.724Z,12.90
2022-09-12T02:51:49.111Z,13.00
2022-09-12T02:54:17.053Z,12.90
2022-09-12T02:56:45.002Z,13.00
2022-09-12T02:59:18.027Z,12.90
2022-09-12T03:01:50.600Z,12.90
2022-09-12T03:04:39.764Z,12.90
2022-09-12T03:07:31.088Z,12.90
2022-09-12T03:10:31.033Z,12.90
2022-09-12T03:13:22.541Z,12.80
2022-09-12T03:16:00.863Z,12.80
2022-09-12T03:18:37.041Z,12.80
2022-09-12T03:21:17.368Z,12.80
2022-09-12T03:24:26.168Z,12.90
2022-09-12T03:26:53.483Z,12.90
2022-09-12T03:29:20.803Z,13.00
2022-09-12T03:31:52.687Z,13.00
2022-09-12T03:34:20.217Z,12.90
2022-09-12T03:36:47.671Z,12.90
2022-09-12T03:39:15.290Z,12.80
2022-09-12T03:41:42.655Z,12.80
2022-09-12T03:44:10.044Z,12.80
2022-09-12T03:46:37.561Z,12.70
2022-09-12T03:49:06.009Z,12.70
2022-09-12T03:51:33.298Z,12.70
2022-09-12T03:54:00.582Z,12.70
2022-09-12T03:56:27.875Z,12.70
2022-09-12T03:58:55.181Z,12.60
2022-09-12T04:01:22.690Z,12.60
2022-09-12T04:03:51.011Z,12.60
2022-09-12T04:06:20.438Z,12.60
2022-09-12T04:08:51.937Z,12.50
2022-09-12T04:11:20.192Z,12.50
2022-09-12T04:13:47.579Z,12.50
2022-09-12T04:16:15.702Z,12.50
2022-09-12T04:18:43.195Z,12.50
2022-09-12T04:21:12.815Z,12.40
2022-09-12T04:23:40.186Z,12.50
2022-09-12T04:26:07.900Z,12.50
2022-09-12T04:28:36.579Z,12.50
2022-09-12T04:31:06.084Z,12.50
2022-09-12T04:33:34.511Z,12.40
2022-09-12T04:36:20.090Z,12.40
2022-09-12T04:38:47.631Z,12.40
2022-09-12T04:41:20.454Z,12.40
2022-09-12T04:43:48.401Z,12.40
2022-09-12T04:46:17.009Z,12.40
2022-09-12T04:48:44.471Z,12.30
2022-09-12T04:51:20.946Z,12.40
2022-09-12T04:53:49.817Z,12.30
2022-09-12T04:56:17.289Z,12.30
2022-09-12T04:58:44.726Z,12.30
2022-09-12T05:01:14.733Z,12.30
2022-09-12T05:03:45.780Z,12.30
2022-09-12T05:06:14.711Z,12.30
2022-09-12T05:08:42.107Z,12.20
2022-09-12T05:11:14.422Z,12.20
2022-09-12T05:13:42.327Z,12.20
2022-09-12T05:16:11.347Z,12.20
2022-09-12T05:18:38.866Z,12.20
2022-09-12T05:21:08.047Z,12.20
2022-09-12T05:23:35.744Z,12.20
2022-09-12T05:26:03.736Z,12.20
2022-09-12T05:28:32.741Z,12.30
2022-09-12T05:31:16.776Z,12.30
2022-09-12T05:33:46.668Z,12.30
2022-09-12T05:36:15.999Z,12.40
2022-09-12T05:38:43.558Z,12.30
2022-09-12T05:41:25.249Z,12.40
2022-09-12T05:43:56.921Z,12.40
2022-09-12T05:46:25.807Z,12.50
2022-09-12T05:48:56.342Z,12.50
2022-09-12T05:51:26.753Z,12.60
2022-09-12T05:53:55.748Z,12.70
2022-09-12T05:56:34.327Z,12.70
2022-09-12T05:59:03.515Z,12.80
2022-09-12T06:01:31.719Z,12.80
2022-09-12T06:04:02.739Z,12.90
2022-09-12T06:06:30.706Z,13.00
2022-09-12T06:08:59.834Z,13.00
2022-09-12T06:11:28.819Z,13.10
2022-09-12T06:13:57.111Z,13.10
2022-09-12T06:16:26.252Z,13.20
2022-09-12T06:19:01.731Z,13.30
2022-09-12T06:21:30.759Z,13.30
2022-09-12T06:24:01.126Z,13.40
2022-09-12T06:26:29.276Z,13.40
2022-09-12T06:28:57.474Z,13.50
2022-09-12T06:31:26.970Z,13.60
2022-09-12T06:33:54.982Z,13.70
2022-09-12T06:36:27.124Z,13.70
2022-09-12T06:38:56.293Z,13.80
2022-09-12T06:41:24.249Z,13.80
2022-09-12T06:43:51.565Z,13.90
2022-09-12T06:46:19.175Z,14.00
2022-09-12T06:48:46.557Z,14.10
2022-09-12T06:51:15.424Z,14.20
2022-09-12T06:53:43.207Z,14.30
2022-09-12T06:56:20.509Z,14.30
2022-09-12T06:58:48.786Z,14.40
2022-09-12T07:01:26.306Z,14.50
2022-09-12T07:03:55.848Z,14.50
2022-09-12T07:06:26.170Z,14.60
2022-09-12T07:08:53.492Z,14.70
2022-09-12T07:11:22.641Z,14.80
2022-09-12T07:13:51.931Z,14.80
2022-09-12T07:16:20.067Z,14.90
2022-09-12T07:18:54.811Z,15.00
2022-09-12T07:21:22.638Z,15.10
2022-09-12T07:23:51.797Z,15.10
2022-09-12T07:26:19.264Z,15.20
2022-09-12T07:28:50.050Z,15.30
2022-09-12T07:31:21.342Z,15.40
2022-09-12T07:33:54.406Z,15.50
2022-09-12T07:36:23.538Z,15.60
2022-09-12T07:38:57.353Z,15.70
2022-09-12T07:41:30.006Z,15.80
2022-09-12T07:43:58.575Z,15.90
2022-09-12T07:46:26.550Z,16.00
2022-09-12T07:48:54.752Z,16.10
2022-09-12T07:51:22.748Z,16.20
2022-09-12T07:53:50.216Z,16.20
2022-09-12T07:56:17.852Z,16.30
2022-09-12T07:58:45.498Z,16.40
2022-09-12T08:01:14.400Z,16.50
2022-09-12T08:03:42.932Z,16.60
2022-09-12T08:06:10.918Z,16.70
2022-09-12T08:08:38.664Z,16.80
2022-09-12T08:11:16.064Z,16.90
2022-09-12T08:13:43.537Z,16.90
2022-09-12T08:16:18.599Z,17.00
2022-09-12T08:18:46.021Z,17.10
2022-09-12T08:21:15.067Z,17.20
2022-09-12T08:23:43.178Z,17.20
2022-09-12T08:26:11.213Z,17.30
2022-09-12T08:28:40.985Z,17.30
2022-09-12T08:31:09.652Z,17.40
2022-09-12T08:33:37.187Z,17.50
2022-09-12T08:36:14.992Z,17.60
2022-09-12T08:38:44.072Z,17.60
2022-09-12T08:41:34.828Z,17.70
2022-09-12T08:44:39.725Z,17.70
2022-09-12T08:47:16.067Z,17.90
2022-09-12T08:50:20.802Z,18.00
2022-09-12T08:52:52.029Z,18.00
2022-09-12T08:55:31.518Z,18.10
2022-09-12T08:58:00.683Z,18.20
2022-09-12T09:00:38.069Z,18.30
2022-09-12T09:03:27.753Z,18.30
2022-09-12T09:06:28.707Z,18.40
2022-09-12T09:09:23.443Z,18.40
2022-09-12T09:12:01.147Z,18.50
2022-09-12T09:15:12.020Z,18.50
2022-09-12T09:17:42.079Z,18.60
2022-09-12T09:20:34.068Z,18.70
2022-09-12T09:23:27.529Z,18.80
2022-09-12T09:26:01.732Z,18.90
2022-09-12T09:28:53.592Z,19.00
2022-09-12T09:31:22.637Z,19.00
2022-09-12T09:33:52.135Z,19.00
2022-09-12T09:36:30.327Z,19.10
2022-09-12T09:39:10.610Z,19.10
2022-09-12T09:41:46.935Z,19.20
2022-09-12T09:44:14.262Z,19.30
2022-09-12T09:46:41.697Z,19.30
2022-09-12T09:49:12.050Z,19.30
2022-09-12T09:51:40.787Z,19.40
2022-09-12T09:54:14.129Z,19.40
2022-09-12T09:56:42.661Z,19.50
2022-09-12T09:59:29.616Z,19.50
2022-09-12T10:02:23.835Z,19.60
2022-09-12T10:04:56.589Z,19.70
2022-09-12T10:07:24.066Z,19.80
2022-09-12T10:10:23.907Z,19.80
2022-09-12T10:12:51.960Z,19.80
2022-09-12T10:15:21.458Z,19.80
2022-09-12T10:17:49.820Z,19.90
2022-09-12T10:20:40.522Z,19.90
2022-09-12T10:23:23.538Z,19.90
2022-09-12T10:25:56.480Z,20.10
2022-09-12T10:28:30.572Z,20.00
2022-09-12T10:30:59.007Z,20.10
2022-09-12T10:33:26.372Z,20.20
2022-09-12T10:35:54.198Z,20.30
2022-09-12T10:38:28.411Z,20.30
2022-09-12T10:41:09.919Z,20.40
2022-09-12T10:43:38.578Z,20.40
2022-09-12T10:46:17.908Z,20.40
2022-09-12T10:48:50.855Z,20.50
2022-09-12T10:51:24.493Z,20.50
2022-09-12T10:54:05.230Z,20.50
2022-09-12T10:56:33.895Z,20.50
2022-09-12T10:59:16.796Z,20.50
2022-09-12T11:02:01.398Z,20.50
2022-09-12T11:04:56.556Z,20.60
2022-09-12T11:07:30.005Z,20.60
2022-09-12T11:10:18.888Z,20.70
2022-09-12T11:13:06.086Z,20.70
2022-09-12T11:15:52.349Z,20.80
2022-09-12T11:18:19.664Z,20.80
2022-09-12T11:21:09.536Z,20.80
2022-09-12T11:23:59.370Z,20.80
2022-09-12T11:26:48.643Z,20.90
2022-09-12T11:29:18.902Z,21.00
2022-09-12T11:31:50.288Z,21.00
2022-09-12T11:35:08.375Z,21.10
2022-09-12T11:38:13.358Z,21.20
2022-09-12T11:41:34.747Z,21.30
2022-09-12T11:44:14.046Z,21.40
2022-09-12T11:46:43.212Z,21.40
2022-09-12T11:49:13.541Z,21.40
2022-09-12T11:52:05.379Z,21.50
2022-09-12T11:54:54.223Z,21.60
2022-09-12T11:57:40.231Z,21.60
2022-09-12T12:00:44.972Z,21.60
2022-09-12T12:03:34.473Z,21.70
2022-09-12T12:06:14.135Z,21.70
2022-09-12T12:08:42.729Z,21.70
2022-09-12T12:11:10.726Z,21.80
2022-09-12T12:13:52.721Z,21.70
2022-09-12T12:16:28.951Z,21.70
2022-09-12T12:18:56.920Z,21.80
2022-09-12T12:21:46.241Z,21.70
2022-09-12T12:24:21.684Z,21.80
2022-09-12T12:26:58.032Z,21.70
2022-09-12T12:29:31.755Z,21.60
2022-09-12T12:32:05.711Z,21.50
2022-09-12T12:34:38.845Z,21.40
2022-09-12T12:37:21.561Z,21.40
2022-09-12T12:40:20.327Z,21.50
2022-09-12T12:42:47.924Z,21.50
2022-09-12T12:45:18.183Z,21.50
2022-09-12T12:47:47.407Z,21.60
2022-09-12T12:50:19.567Z,21.60
2022-09-12T12:52:57.011Z,21.50
2022-09-12T12:55:31.283Z,21.50
2022-09-12T12:57:59.430Z,21.60
2022-09-12T13:00:30.524Z,21.60
2022-09-12T13:03:07.201Z,21.70
2022-09-12T13:05:41.705Z,21.80
2022-09-12T13:08:10.630Z,21.80
2022-09-12T13:10:38.067Z,21.80
2022-09-12T13:13:06.668Z,21.80
2022-09-12T13:15:37.169Z,21.80
2022-09-12T13:18:05.546Z,21.80
2022-09-12T13:20:35.661Z,21.80
2022-09-12T13:23:02.970Z,21.80
2022-09-12T13:25:32.305Z,21.80
2022-09-12T13:28:11.965Z,21.80
2022-09-12T13:30:43.711Z,21.80
2022-09-12T13:33:21.524Z,21.90
2022-09-12T13:36:15.438Z,21.90
2022-09-12T13:39:07.127Z,21.90
2022-09-12T13:41:37.527Z,21.90
2022-09-12T13:44:07.627Z,21.90
2022-09-12T13:46:34.988Z,21.90
2022-09-12T13:49:07.468Z,21.90
2022-09-12T13:51:34.991Z,22.00
2022-09-12T13:54:03.611Z,22.00
2022-09-12T13:56:31.047Z,22.00
2022-09-12T13:59:00.312Z,22.00
2022-09-12T14:01:48.202Z,22.00
2022-09-12T14:04:44.562Z,22.00
2022-09-12T14:07:19.617Z,22.00
2022-09-12T14:09:53.932Z,22.00
2022-09-12T14:12:36.507Z,22.00
2022-09-12T14:15:04.135Z,22.00
2022-09-12T14:17:36.313Z,22.00
2022-09-12T14:20:07.181Z,22.00
2022-09-12T14:22:34.937Z,22.00
2022-09-12T14:25:02.300Z,22.00
2022-09-12T14:27:40.570Z,21.90
2022-09-12T14:30:20.673Z,22.00
2022-09-12T14:33:06.279Z,22.00
2022-09-12T14:35:33.659Z,22.10
2022-09-12T14:38:22.871Z,22.10
2022-09-12T14:40:59.768Z,22.10
2022-09-12T14:43:28.927Z,22.10
2022-09-12T14:46:03.979Z,22.00
2022-09-12T14:48:33.925Z,22.00
2022-09-12T14:51:01.351Z,21.90
2022-09-12T14:53:32.903Z,21.90
2022-09-12T14:56:07.791Z,21.90
2022-09-12T14:58:35.187Z,21.90
2022-09-12T15:01:06.307Z,21.80
2022-09-12T15:03:36.410Z,21.80
2022-09-12T15:06:05.087Z,21.80
2022-09-12T15:08:32.405Z,21.80
2022-09-12T15:10:59.930Z,21.80
2022-09-12T15:13:28.500Z,21.80
2022-09-12T15:15:57.133Z,21.80
2022-09-12T15:18:26.190Z,21.80
2022-09-12T15:20:55.975Z,21.80
2022-09-12T15:23:27.248Z,21.80
2022-09-12T15:25:54.848Z,21.80
2022-09-12T15:28:23.880Z,21.80
2022-09-12T15:30:52.519Z,21.90
2022-09-12T15:33:21.028Z,22.00
2022-09-12T15:35:48.525Z,22.00
2022-09-12T15:38:15.959Z,22.00
2022-09-12T15:40:43.299Z,22.00
2022-09-12T15:43:15.113Z,22.00
2022-09-12T15:45:42.639Z,22.10
2022-09-12T15:48:10.257Z,22.10
2022-09-12T15:50:37.600Z,22.10
2022-09-12T15:53:04.935Z,22.20
2022-09-12T15:55:32.475Z,22.20
2022-09-12T15:58:04.807Z,22.20
2022-09-12T16:00:34.288Z,22.10
2022-09-12T16:03:01.760Z,22.10
2022-09-12T16:05:29.604Z,22.00
2022-09-12T16:07:56.939Z,22.00
2022-09-12T16:10:26.591Z,21.90
2022-09-12T16:12:53.939Z,21.90
2022-09-12T16:15:23.047Z,21.80
2022-09-12T16:17:50.520Z,21.80
2022-09-12T16:20:19.173Z,21.80
2022-09-12T16:22:46.627Z,21.70
2022-09-12T16:25:13.910Z,21.60
2022-09-12T16:27:41.457Z,21.50
2022-09-12T16:30:09.602Z,21.40
2022-09-12T16:32:37.011Z,21.40
2022-09-12T16:35:04.776Z,21.30
2022-09-12T16:37:34.440Z,21.20
2022-09-12T16:40:03.005Z,21.20
2022-09-12T16:42:30.358Z,21.10
2022-09-12T16:44:57.787Z,21.00
2022-09-12T16:47:25.148Z,21.00
2022-09-12T16:49:52.421Z,20.90
2022-09-12T16:52:19.783Z,20.90
2022-09-12T16:54:47.069Z,20.90
2022-09-12T16:57:14.354Z,20.80
2022-09-12T16:59:41.683Z,20.80
2022-09-12T17:02:12.331Z,20.70
2022-09-12T17:04:40.100Z,20.60
2022-09-12T17:07:07.684Z,20.60
2022-09-12T17:09:35.149Z,20.60
2022-09-12T17:12:02.710Z,20.50
2022-09-12T17:14:30.079Z,20.40
2022-09-12T17:16:57.417Z,20.30
2022-09-12T17:19:29.939Z,20.30
2022-09-12T17:21:57.681Z,20.20
2022-09-12T17:24:25.263Z,20.10
2022-09-12T17:26:53.550Z,20.00
2022-09-12T17:29:20.959Z,20.00
2022-09-12T17:31:48.858Z,19.90
2022-09-12T17:34:17.558Z,19.90
2022-09-12T17:36:45.673Z,19.80
2022-09-12T17:39:13.062Z,19.70
2022-09-12T17:41:41.787Z,19.70
2022-09-12T17:44:10.786Z,19.60
2022-09-12T17:46:38.412Z,19.60
2022-09-12T17:49:08.856Z,19.50
2022-09-12T17:51:36.213Z,19.50
2022-09-12T17:54:11.850Z,19.50
2022-09-12T17:56:39.398Z,19.40
2022-09-12T17:59:07.384Z,19.30
2022-09-12T18:01:53.635Z,19.30
2022-09-12T18:04:21.057Z,19.20
2022-09-12T18:06:48.958Z,19.20
2022-09-12T18:09:18.111Z,19.10
2022-09-12T18:11:45.786Z,19.00
2022-09-12T18:14:14.423Z,19.00
2022-09-12T18:16:43.138Z,18.90
2022-09-12T18:19:11.210Z,18.90
2022-09-12T18:21:38.611Z,18.80
2022-09-12T18:24:06.060Z,18.80
2022-09-12T18:26:33.581Z,18.70
2022-09-12T18:29:00.954Z,18.70
2022-09-12T18:31:29.636Z,18.60
2022-09-12T18:33:57.398Z,18.60
2022-09-12T18:36:24.694Z,18.60
2022-09-12T18:38:52.003Z,18.50
2022-09-12T18:41:21.066Z,18.40
2022-09-12T18:43:48.721Z,18.40
2022-09-12T18:46:17.434Z,18.40
2022-09-12T18:48:45.319Z,18.30
2022-09-12T18:51:20.035Z,18.30
2022-09-12T18:53:56.012Z,18.20
2022-09-12T18:56:24.400Z,18.20
2022-09-12T18:58:53.129Z,18.10
2022-09-12T19:01:25.596Z,18.10
2022-09-12T19:03:53.355Z,18.00
2022-09-12T19:06:22.871Z,18.00
2022-09-12T19:08:50.658Z,18.00
2022-09-12T19:11:18.067Z,17.90
2022-09-12T19:13:46.510Z,17.90
2022-09-12T19:16:15.511Z,17.80
2022-09-12T19:18:42.844Z,17.80
2022-09-12T19:21:14.552Z,17.80
2022-09-12T19:23:41.833Z,17.70
2022-09-12T19:26:10.766Z,17.70
2022-09-12T19:28:38.169Z,17.70
2022-09-12T19:31:10.965Z,17.70
2022-09-12T19:33:38.721Z,17.60
2022-09-12T19:36:21.955Z,17.60
2022-09-12T19:38:55.382Z,17.60
2022-09-12T19:41:22.642Z,17.60
2022-09-12T19:43:49.998Z,17.50
2022-09-12T19:46:18.412Z,17.50
2022-09-12T19:48:46.261Z,17.40
2022-09-12T19:51:14.095Z,17.40
2022-09-12T19:53:41.830Z,17.30
2022-09-12T19:56:10.161Z,17.30
2022-09-12T19:58:39.210Z,17.20
2022-09-12T20:01:18.018Z,17.20
2022-09-12T20:03:45.636Z,17.10
2022-09-12T20:06:14.456Z,17.00
2022-09-12T20:08:45.629Z,17.00
2022-09-12T20:11:14.705Z,16.90
2022-09-12T20:13:42.223Z,16.90
2022-09-12T20:16:21.251Z,16.80
2022-09-12T20:18:55.934Z,16.80
2022-09-12T20:21:25.343Z,16.80
2022-09-12T20:23:52.890Z,16.80
2022-09-12T20:26:20.469Z,16.70
2022-09-12T20:28:48.112Z,16.70
2022-09-12T20:31:16.066Z,16.70
2022-09-12T20:33:45.188Z,16.60
2022-09-12T20:36:15.542Z,16.60
2022-09-12T20:38:46.496Z,16.60
2022-09-12T20:41:13.950Z,16.50
2022-09-12T20:43:41.289Z,16.50
2022-09-12T20:46:11.785Z,16.50
2022-09-12T20:48:39.421Z,16.50
2022-09-12T20:51:07.346Z,16.50
2022-09-12T20:53:35.495Z,16.50
2022-09-12T20:56:03.825Z,16.50
2022-09-12T20:58:31.274Z,16.50
2022-09-12T21:00:58.866Z,16.50
2022-09-12T21:03:26.214Z,16.50
2022-09-12T21:05:53.623Z,16.40
2022-09-12T21:08:20.979Z,16.40
2022-09-12T21:10:48.300Z,16.40
2022-09-12T21:13:15.611Z,16.40
2022-09-12T21:15:43.038Z,16.40
2022-09-12T21:18:10.391Z,16.40
2022-09-12T21:20:37.743Z,16.30
2022-09-12T21:23:05.374Z,16.30
2022-09-12T21:25:32.697Z,16.30
2022-09-12T21:28:00.156Z,16.30
2022-09-12T21:30:27.759Z,16.30
2022-09-12T21:32:55.135Z,16.30
2022-09-12T21:35:22.449Z,16.20
2022-09-12T21:37:52.434Z,16.20
2022-09-12T21:40:19.985Z,16.20
2022-09-12T21:42:48.899Z,16.10
2022-09-12T21:45:16.560Z,16.10
2022-09-12T21:47:44.266Z,16.10
2022-09-12T21:50:11.991Z,16.10
2022-09-12T21:52:39.642Z,16.10
2022-09-12T21:55:07.681Z,16.00
2022-09-12T21:57:35.351Z,16.00
2022-09-12T22:00:04.544Z,16.00
2022-09-12T22:02:35.555Z,16.00
2022-09-12T22:05:03.050Z,16.00
2022-09-12T22:07:30.576Z,15.90
2022-09-12T22:09:58.023Z,15.90
2022-09-12T22:12:27.526Z,15.90
2022-09-12T22:14:58.007Z,15.90
2022-09-12T22:17:25.330Z,15.90
2022-09-12T22:19:52.703Z,15.80
2022-09-12T22:22:38.445Z,15.80
2022-09-12T22:25:06.103Z,15.80
2022-09-12T22:27:33.459Z,15.80
2022-09-12T22:30:00.788Z,15.70
2022-09-12T22:32:28.342Z,15.70
2022-09-12T22:34:55.641Z,15.70
2022-09-12T22:37:22.947Z,15.70
2022-09-12T22:39:50.656Z,15.70
2022-09-12T22:42:17.959Z,15.70
2022-09-12T22:44:45.260Z,15.70
2022-09-12T22:47:12.537Z,15.80
2022-09-12T22:49:39.906Z,15.80
2022-09-12T22:52:07.560Z,15.70
2022-09-12T22:54:34.959Z,15.70
2022-09-12T22:57:02.286Z,15.60
2022-09-12T22:59:29.653Z,15.60
2022-09-12T23:01:57.258Z,15.60
2022-09-12T23:04:24.617Z,15.60
2022-09-12T23:06:51.951Z,15.60
2022-09-12T23:09:19.322Z,15.60
2022-09-12T23:11:46.672Z,15.60
2022-09-12T23:14:14.156Z,15.60
2022-09-12T23:16:41.492Z,15.60
2022-09-12T23:19:08.839Z,15.60
2022-09-12T23:21:36.245Z,15.50
2022-09-12T23:24:03.795Z,15.50
2022-09-12T23:26:31.175Z,15.50
2022-09-12T23:29:01.204Z,15.40
2022-09-12T23:31:30.344Z,15.40
2022-09-12T23:33:58.701Z,15.30
2022-09-12T23:36:26.136Z,15.30
2022-09-12T23:38:54.676Z,15.20
2022-09-12T23:41:22.508Z,15.20
2022-09-12T23:43:49.872Z,15.20
2022-09-12T23:46:17.904Z,15.10
2022-09-12T23:48:45.485Z,15.10
2022-09-12T23:51:12.887Z,15.10
2022-09-12T23:53:40.914Z,15.10
2022-09-12T23:56:08.263Z,15.10
2022-09-12T23:58:35.679Z,15.10
